Time;durP1;ratioP1;P1;durP2;ratioP2;P2;SDS_P1;SDS_P2;PMS_P1;PMS_P2;Temp;Humidity;BMP_temperature;BMP_pressure;BME280_temperature;BME280_humidity;BME280_pressure;Samples;Min_cycle;Max_cycle;Signal;HPM_P1;HPM_P2
2021/12/05 00:20:23;;;;;;;8.97;7.60;;;;;;;3.31;90.12;98979.97;5021339;28;20289;-76
2021/12/05 00:22:51;;;;;;;11.53;9.07;;;;;;;3.33;90.19;98984.19;5023325;28;20296;-76
2021/12/05 00:25:25;;;;;;;12.07;8.60;;;;;;;3.37;90.17;99000.66;5015633;28;20221;-76
2021/12/05 00:27:55;;;;;;;11.00;8.43;;;;;;;3.38;90.60;98999.72;5016899;28;20218;-76
2021/12/05 00:30:45;;;;;;;10.73;9.07;;;;;;;3.41;90.98;99010.03;5013617;28;20313;-76
2021/12/05 00:33:30;;;;;;;11.00;8.60;;;;;;;3.44;90.52;99001.97;5028106;28;20210;-75
2021/12/05 00:53:20;;;;;;;21.10;12.33;;;;;;;3.65;91.55;99019.09;4996647;28;20289;-75
2021/12/05 00:55:58;;;;;;;18.10;12.50;;;;;;;3.69;91.13;99025.00;5019268;28;20237;-75
2021/12/05 01:01:26;;;;;;;17.83;11.73;;;;;;;3.74;91.80;99018.53;5013265;28;20209;-76
2021/12/05 01:04:27;;;;;;;17.93;11.10;;;;;;;3.77;91.63;99015.69;5016504;28;20294;-78
2021/12/05 01:07:10;;;;;;;16.70;11.60;;;;;;;3.81;91.45;99024.25;5026859;28;20220;-76
2021/12/05 01:09:46;;;;;;;20.47;12.47;;;;;;;3.83;91.77;99023.22;5030128;28;20214;-76
2021/12/05 01:12:34;;;;;;;20.40;12.40;;;;;;;3.86;91.70;99030.09;5029231;28;20257;-76
2021/12/05 01:15:05;;;;;;;20.60;12.13;;;;;;;3.88;92.11;99036.13;5019031;28;20249;-76
2021/12/05 01:17:39;;;;;;;19.20;12.60;;;;;;;3.89;91.62;99048.34;5020166;28;20206;-76
2021/12/05 01:20:10;;;;;;;15.53;12.23;;;;;;;3.93;92.27;99046.38;5014066;28;20604;-76
2021/12/05 01:22:42;;;;;;;16.17;11.60;;;;;;;3.95;92.21;99049.72;5014743;28;20297;-74
2021/12/05 01:25:19;;;;;;;21.80;11.80;;;;;;;3.97;92.22;99047.84;5015096;28;20235;-76
2021/12/05 01:27:54;;;;;;;19.93;11.67;;;;;;;3.99;92.29;99051.25;5024646;28;20218;-78
2021/12/05 01:30:30;;;;;;;18.27;11.07;;;;;;;4.00;92.10;99069.59;5013642;28;20676;-76
2021/12/05 01:33:04;;;;;;;17.20;12.03;;;;;;;4.00;92.09;99069.59;5030722;28;20263;-75
2021/12/05 01:35:48;;;;;;;15.07;11.53;;;;;;;4.01;91.96;99060.75;5027827;28;20245;-76
2021/12/05 01:38:25;;;;;;;19.00;11.13;;;;;;;4.03;91.61;99056.25;5024160;28;20256;-75
2021/12/05 01:41:05;;;;;;;13.43;11.33;;;;;;;4.07;92.22;99060.38;5030282;28;20691;-75
2021/12/05 01:52:29;;;;;;;23.63;15.33;;;;;;;4.11;91.76;99056.63;4993601;28;20234;-77
2021/12/05 02:09:05;;;;;;;32.63;17.83;;;;;;;4.17;91.00;99065.91;5012754;28;20696;-78
2021/12/05 02:31:20;;;;;;;34.10;21.53;;;;;;;4.27;90.39;99068.84;5022493;28;20269;-76
2021/12/05 02:34:03;;;;;;;33.77;22.03;;;;;;;4.30;90.22;99077.38;5012498;28;20234;-76
2021/12/05 02:39:25;;;;;;;28.10;19.07;;;;;;;4.32;90.91;99086.03;5014108;28;20233;-79
2021/12/05 02:41:53;;;;;;;29.63;18.67;;;;;;;4.33;90.08;99081.59;5025048;28;20213;-76
2021/12/05 02:46:50;;;;;;;26.07;16.37;;;;;;;4.35;90.01;99075.31;5034799;28;20288;-69
2021/12/05 02:49:17;;;;;;;25.90;17.03;;;;;;;4.36;89.78;99077.00;5043718;28;20255;-70
2021/12/05 02:51:51;;;;;;;22.70;16.37;;;;;;;4.36;90.12;99079.63;5042519;28;20232;-71
2021/12/05 02:54:20;;;;;;;32.07;17.43;;;;;;;4.37;89.61;99083.13;5040015;28;20216;-71
2021/12/05 02:56:50;;;;;;;23.83;15.13;;;;;;;4.37;90.19;99078.69;5011284;28;20215;-70
2021/12/05 02:59:23;;;;;;;25.90;17.23;;;;;;;4.38;89.95;99079.53;5011847;28;20215;-71
2021/12/05 03:01:55;;;;;;;28.97;16.60;;;;;;;4.38;89.50;99090.94;5027966;28;20207;-70
2021/12/05 03:04:23;;;;;;;28.17;15.80;;;;;;;4.38;89.36;99092.72;5021264;28;20273;-71
2021/12/05 03:06:52;;;;;;;23.03;16.13;;;;;;;4.39;89.15;99103.16;5010988;28;20680;-71
2021/12/05 03:09:21;;;;;;;27.47;16.17;;;;;;;4.38;89.08;99103.25;5014044;28;20217;-70
2021/12/05 03:11:49;;;;;;;26.57;15.77;;;;;;;4.40;89.52;99119.81;5036122;28;20703;-70
2021/12/05 03:14:16;;;;;;;22.13;14.90;;;;;;;4.39;89.44;99118.13;5031509;28;20213;-70
2021/12/05 03:16:44;;;;;;;22.73;15.03;;;;;;;4.39;89.45;99123.41;5017370;28;20591;-70
2021/12/05 03:19:12;;;;;;;21.30;14.67;;;;;;;4.41;89.30;99138.19;5015675;28;20206;-70
2021/12/05 03:21:41;;;;;;;26.00;15.13;;;;;;;4.44;89.00;99142.44;5020660;28;20210;-71
2021/12/05 03:24:09;;;;;;;22.83;14.20;;;;;;;4.44;89.37;99142.44;5014383;28;20213;-70
2021/12/05 03:26:41;;;;;;;20.83;14.73;;;;;;;4.45;89.03;99154.66;5031337;28;20237;-70
2021/12/05 03:29:10;;;;;;;26.70;15.20;;;;;;;4.45;88.66;99154.66;5029272;28;20671;-70
2021/12/05 03:31:37;;;;;;;23.07;14.73;;;;;;;4.46;88.75;99151.94;5020443;28;20291;-71
2021/12/05 03:34:06;;;;;;;25.57;14.40;;;;;;;4.48;89.02;99152.66;5028890;28;20206;-73
2021/12/05 03:36:33;;;;;;;21.57;13.20;;;;;;;4.48;88.70;99165.00;5016087;28;20347;-71
2021/12/05 03:39:02;;;;;;;18.37;12.90;;;;;;;4.51;88.46;99167.44;5019335;28;20617;-70
2021/12/05 03:41:30;;;;;;;23.90;11.60;;;;;;;4.51;88.29;99173.56;5023491;28;20202;-71
2021/12/05 03:43:59;;;;;;;17.30;11.27;;;;;;;4.51;88.70;99178.00;5021462;28;20241;-71
2021/12/05 03:46:27;;;;;;;18.93;11.77;;;;;;;4.51;88.03;99180.63;5013669;28;20230;-70
2021/12/05 03:48:56;;;;;;;16.13;10.93;;;;;;;4.51;88.22;99178.00;5028680;28;20218;-70
2021/12/05 03:51:24;;;;;;;15.20;10.00;;;;;;;4.52;88.36;99182.31;5030218;28;20230;-69
2021/12/05 03:53:52;;;;;;;12.40;8.57;;;;;;;4.53;88.12;99184.00;5028898;28;20210;-71
2021/12/05 03:56:19;;;;;;;13.83;7.87;;;;;;;4.52;87.92;99185.81;5016119;28;20226;-69
2021/12/05 03:58:48;;;;;;;16.57;9.07;;;;;;;4.51;87.71;99188.53;5011913;28;20706;-69
2021/12/05 04:01:16;;;;;;;11.73;8.13;;;;;;;4.51;87.68;99191.16;5011102;28;20206;-71
2021/12/05 04:03:46;;;;;;;12.93;7.73;;;;;;;4.51;87.99;99204.34;5013261;28;20214;-70
2021/12/05 04:06:15;;;;;;;12.10;7.77;;;;;;;4.50;87.69;99198.22;5030538;28;20222;-69
2021/12/05 04:08:43;;;;;;;13.93;8.30;;;;;;;4.50;87.49;99197.38;5029585;28;20671;-71
2021/12/05 04:11:13;;;;;;;15.20;7.47;;;;;;;4.49;87.32;99204.44;5031450;28;20212;-71
2021/12/05 04:13:40;;;;;;;8.47;6.77;;;;;;;4.50;87.42;99210.56;5026542;28;20211;-70
2021/12/05 04:16:08;;;;;;;9.37;6.77;;;;;;;4.48;87.07;99207.16;5011800;28;20231;-70
2021/12/05 04:18:37;;;;;;;14.30;7.30;;;;;;;4.48;87.39;99221.19;5012002;28;20207;-71
2021/12/05 04:21:05;;;;;;;9.23;6.03;;;;;;;4.47;86.68;99209.00;5013829;28;20217;-70
2021/12/05 04:23:32;;;;;;;9.47;6.47;;;;;;;4.45;86.81;99215.28;5011328;28;20210;-71
2021/12/05 04:25:58;;;;;;;11.57;6.63;;;;;;;4.43;86.93;99214.53;5010880;28;20230;-70
2021/12/05 04:28:25;;;;;;;11.03;5.60;;;;;;;4.42;86.81;99211.06;5017708;28;20789;-71
2021/12/05 04:30:52;;;;;;;9.43;5.60;;;;;;;4.40;86.38;99218.19;5009856;28;20708;-70
2021/12/05 04:33:19;;;;;;;10.87;4.97;;;;;;;4.39;87.02;99221.78;5010155;28;20227;-71
2021/12/05 04:35:48;;;;;;;13.27;4.83;;;;;;;4.38;86.27;99229.78;5014651;28;20248;-71
2021/12/05 04:38:14;;;;;;;8.50;4.50;;;;;;;4.38;86.86;99232.41;5009712;28;20222;-70
2021/12/05 04:40:42;;;;;;;10.67;4.53;;;;;;;4.37;86.70;99228.94;5009924;28;20215;-70
2021/12/05 04:43:08;;;;;;;14.67;5.27;;;;;;;4.37;86.15;99234.19;5009450;28;20206;-71
2021/12/05 04:45:36;;;;;;;15.57;5.00;;;;;;;4.37;86.60;99241.25;5009842;28;20248;-71
2021/12/05 04:48:05;;;;;;;8.17;4.37;;;;;;;4.37;86.62;99238.63;5016059;28;20675;-71
2021/12/05 04:50:32;;;;;;;7.73;4.37;;;;;;;4.36;85.83;99234.28;5010523;28;20218;-71
2021/12/05 04:53:01;;;;;;;9.07;4.73;;;;;;;4.36;85.94;99234.28;5026598;28;20229;-71
2021/12/05 04:55:28;;;;;;;8.60;4.07;;;;;;;4.35;85.73;99238.72;5021398;28;20230;-71
2021/12/05 04:57:55;;;;;;;8.57;4.13;;;;;;;4.35;85.54;99243.13;5034320;28;20222;-70
2021/12/05 05:00:25;;;;;;;14.33;4.30;;;;;;;4.34;85.53;99244.06;5015374;28;20207;-71
2021/12/05 05:02:53;;;;;;;12.37;4.70;;;;;;;4.35;85.80;99243.13;5021611;28;20297;-70
2021/12/05 05:05:20;;;;;;;8.03;4.90;;;;;;;4.34;85.56;99247.56;5019348;28;20237;-71
2021/12/05 05:07:47;;;;;;;10.37;5.20;;;;;;;4.34;85.37;99241.44;5025221;28;20222;-71
2021/12/05 05:10:17;;;;;;;9.47;4.37;;;;;;;4.33;85.39;99245.84;5028238;28;20293;-70
2021/12/05 05:12:44;;;;;;;8.17;4.37;;;;;;;4.34;85.20;99237.00;5033420;28;20236;-71
2021/12/05 05:15:14;;;;;;;9.10;4.30;;;;;;;4.34;85.12;99236.16;5020031;28;20241;-70
2021/12/05 05:17:41;;;;;;;8.23;5.20;;;;;;;4.32;85.58;99248.59;5022218;28;20209;-69
2021/12/05 05:20:20;;;;;;;9.93;4.00;;;;;;;4.31;84.77;99246.88;5021832;28;20211;-70
2021/12/05 05:23:00;;;;;;;7.63;4.30;;;;;;;4.29;84.97;99246.16;5012965;28;20214;-71
2021/12/05 05:26:09;;;;;;;8.30;4.97;;;;;;;4.27;85.27;99246.25;5013843;28;20238;-71
2021/12/05 05:39:43;;;;;;;9.73;4.70;;;;;;;4.27;84.60;99262.06;5016552;28;20290;-71
2021/12/05 05:42:37;;;;;;;10.10;4.30;;;;;;;4.28;84.74;99257.63;5013629;28;20207;-70
2021/12/05 05:45:20;;;;;;;11.07;4.60;;;;;;;4.29;84.45;99261.97;5015002;28;20227;-70
2021/12/05 05:48:01;;;;;;;7.80;3.90;;;;;;;4.29;84.88;99261.97;5022684;28;20210;-71
2021/12/05 05:50:29;;;;;;;6.20;3.67;;;;;;;4.28;84.30;99261.13;5014722;28;20203;-71
2021/12/05 05:52:55;;;;;;;10.47;4.43;;;;;;;4.27;84.29;99256.78;5026264;28;20230;-70
2021/12/05 05:55:23;;;;;;;8.67;4.37;;;;;;;4.26;84.23;99255.09;5025225;28;20230;-70
2021/12/05 05:58:01;;;;;;;8.10;3.87;;;;;;;4.25;83.83;99257.81;5024196;28;20230;-70
2021/12/05 06:00:34;;;;;;;6.63;3.70;;;;;;;4.22;83.92;99264.09;5020368;28;20679;-71
2021/12/05 06:03:21;;;;;;;12.07;4.17;;;;;;;4.19;83.71;99266.91;5019731;28;20194;-71
2021/12/05 06:05:50;;;;;;;9.30;4.23;;;;;;;4.16;84.15;99260.03;5021566;28;20222;-71
2021/12/05 06:08:16;;;;;;;5.83;4.00;;;;;;;4.14;84.09;99261.91;5028306;28;20485;-70
2021/12/05 06:10:43;;;;;;;11.60;4.33;;;;;;;4.11;83.45;99262.13;5023318;28;20625;-70
2021/12/05 06:13:11;;;;;;;11.33;4.30;;;;;;;4.09;83.61;99271.91;5024576;28;20666;-70
2021/12/05 06:15:37;;;;;;;9.00;4.07;;;;;;;4.06;83.66;99263.31;5027274;28;20231;-70
2021/12/05 06:18:04;;;;;;;6.40;4.03;;;;;;;4.03;83.67;99269.63;5012952;28;20207;-71
2021/12/05 06:20:32;;;;;;;10.00;4.63;;;;;;;3.99;83.62;99262.81;5018578;28;20213;-71
2021/12/05 06:22:59;;;;;;;9.03;4.50;;;;;;;3.96;83.39;99268.25;5025794;28;20291;-71
2021/12/05 06:25:28;;;;;;;9.20;4.87;;;;;;;3.92;83.33;99274.66;5018345;28;20242;-70
2021/12/05 06:27:58;;;;;;;7.73;4.37;;;;;;;3.87;83.20;99268.81;5024108;28;20223;-70
2021/12/05 06:30:37;;;;;;;8.33;3.97;;;;;;;3.82;83.60;99266.44;5023948;28;20214;-72
2021/12/05 06:41:22;;;;;;;8.50;4.00;;;;;;;3.67;83.07;99277.84;4996021;28;20215;-71
2021/12/05 06:46:36;;;;;;;9.63;4.40;;;;;;;3.59;82.67;99293.22;5015026;28;20308;-70
2021/12/05 06:49:02;;;;;;;12.00;5.23;;;;;;;3.56;83.28;99296.06;5029603;28;20202;-71
2021/12/05 06:51:31;;;;;;;12.27;4.83;;;;;;;3.54;83.11;99299.69;5029727;28;20202;-70
2021/12/05 06:53:58;;;;;;;10.77;4.40;;;;;;;3.49;83.20;99297.31;5022779;28;20227;-70
2021/12/05 06:56:25;;;;;;;14.40;5.17;;;;;;;3.45;82.47;99307.16;5024610;28;20443;-71
2021/12/05 06:58:52;;;;;;;10.33;4.40;;;;;;;3.41;82.57;99312.66;5031162;28;20205;-71
2021/12/05 07:01:19;;;;;;;9.40;4.47;;;;;;;3.37;82.65;99317.28;5020522;28;20242;-71
2021/12/05 07:03:49;;;;;;;10.43;4.10;;;;;;;3.34;82.64;99325.34;5027946;28;20696;-70
2021/12/05 07:06:22;;;;;;;12.60;5.03;;;;;;;3.31;82.49;99325.50;5031488;28;20364;-70
2021/12/05 07:08:50;;;;;;;11.57;5.57;;;;;;;3.28;83.18;99333.56;5027994;28;20626;-71
2021/12/05 07:11:22;;;;;;;10.10;4.83;;;;;;;3.24;82.67;99341.69;5013316;28;20281;-70
2021/12/05 07:16:51;;;;;;;8.90;4.13;;;;;;;3.13;82.35;99355.44;4966673;28;20694;-71
2021/12/05 07:19:29;;;;;;;5.83;3.40;;;;;;;3.05;82.12;99358.47;5013102;28;20672;-70
2021/12/05 07:21:58;;;;;;;7.80;4.13;;;;;;;2.97;82.35;99359.81;5011606;28;20219;-71
2021/12/05 07:24:37;;;;;;;11.37;4.10;;;;;;;2.92;82.97;99365.31;5022429;28;20217;-70
2021/12/05 07:41:17;;;;;;;12.03;3.93;;;;;;;2.90;83.62;99389.97;5018579;28;20263;-70
2021/12/05 07:43:44;;;;;;;10.10;3.80;;;;;;;2.91;83.69;99402.19;5018903;28;20221;-71
2021/12/05 07:46:11;;;;;;;6.40;3.57;;;;;;;2.93;83.90;99413.50;5016139;28;20620;-70
2021/12/05 07:48:41;;;;;;;9.70;3.80;;;;;;;2.93;84.70;99414.34;5018169;28;20218;-70
2021/12/05 07:51:15;;;;;;;6.73;3.83;;;;;;;2.94;84.89;99415.19;5019234;28;20198;-70
2021/12/05 07:53:50;;;;;;;8.20;4.40;;;;;;;2.94;85.05;99413.41;5022518;28;20606;-70
2021/12/05 07:56:24;;;;;;;4.93;4.10;;;;;;;2.95;85.14;99419.53;5019527;28;20218;-70
2021/12/05 07:59:05;;;;;;;9.33;3.53;;;;;;;2.97;84.84;99417.69;5018755;28;20243;-70
2021/12/05 08:15:18;;;;;;;17.20;8.10;;;;;;;3.10;85.59;99442.41;5019957;28;20291;-68
2021/12/05 08:17:51;;;;;;;11.90;6.83;;;;;;;3.12;85.47;99437.91;5016000;28;20209;-71
2021/12/05 08:20:21;;;;;;;12.77;7.47;;;;;;;3.14;86.12;99444.81;5017329;28;20226;-69
2021/12/05 08:22:49;;;;;;;11.17;6.90;;;;;;;3.18;85.85;99452.53;5017671;28;20202;-70
2021/12/05 08:25:15;;;;;;;8.17;4.77;;;;;;;3.18;85.85;99453.38;5020816;28;20223;-70
2021/12/05 08:27:48;;;;;;;8.53;4.87;;;;;;;3.22;85.90;99454.09;5020548;28;20211;-70
2021/12/05 08:30:24;;;;;;;7.73;4.50;;;;;;;3.24;86.16;99460.94;5022945;28;20209;-70
2021/12/05 08:33:10;;;;;;;7.60;3.53;;;;;;;3.26;86.49;99466.13;5019331;28;20420;-71
2021/12/05 08:36:09;;;;;;;10.40;4.00;;;;;;;3.29;86.51;99468.59;5021652;28;20325;-69
2021/12/05 08:41:48;;;;;;;9.13;3.80;;;;;;;3.40;85.98;99489.97;5009123;28;20202;-70
2021/12/05 09:20:50;;;;;;;7.80;4.23;;;;;;;3.87;86.65;99562.94;5037435;28;20267;-80
2021/12/05 09:23:46;;;;;;;6.17;3.67;;;;;;;3.90;86.25;99557.53;5038766;28;20741;-74
2021/12/05 09:26:33;;;;;;;13.77;9.63;;;;;;;3.95;85.89;99563.38;5039804;28;20249;-78
2021/12/05 09:29:36;;;;;;;15.93;10.30;;;;;;;3.98;86.26;99566.69;5041741;28;20206;-76
2021/12/05 10:02:43;;;;;;;4.40;1.80;;;;;;;4.61;84.14;99593.13;5025252;28;20265;-75
2021/12/05 10:08:26;;;;;;;6.13;2.10;;;;;;;4.72;83.53;99605.69;5025765;28;20217;-75
2021/12/05 10:11:08;;;;;;;7.83;3.40;;;;;;;4.75;82.91;99609.03;5031421;28;20214;-75
2021/12/05 10:13:49;;;;;;;11.10;5.57;;;;;;;4.79;82.94;99602.66;5024380;28;20280;-75
2021/12/05 10:16:21;;;;;;;3.47;1.50;;;;;;;4.81;82.44;99613.97;5029846;28;20281;-75
2021/12/05 10:19:26;;;;;;;7.47;1.63;;;;;;;4.83;82.40;99617.38;5021411;28;20202;-76
2021/12/05 10:35:53;;;;;;;4.50;1.77;;;;;;;5.02;80.61;99609.22;5020426;28;20249;-78
2021/12/05 10:38:21;;;;;;;4.73;2.03;;;;;;;5.05;80.27;99601.16;5024484;28;20294;-76
2021/12/05 10:40:59;;;;;;;4.83;1.37;;;;;;;5.08;80.15;99610.69;5025782;28;20203;-76
2021/12/05 10:43:27;;;;;;;4.80;1.40;;;;;;;5.08;80.02;99610.69;5023490;28;20213;-74
2021/12/05 10:45:56;;;;;;;5.87;1.33;;;;;;;5.07;79.48;99611.63;5028787;28;20233;-75
2021/12/05 10:48:26;;;;;;;6.60;2.17;;;;;;;5.06;79.40;99610.75;5026094;28;21253;-75
2021/12/05 10:50:56;;;;;;;4.30;1.60;;;;;;;5.05;78.86;99611.69;5028256;28;20216;-76
2021/12/05 10:53:42;;;;;;;5.03;1.50;;;;;;;5.05;78.79;99613.50;5018461;28;20222;-76
2021/12/05 10:56:21;;;;;;;4.97;1.63;;;;;;;5.03;78.32;99615.34;5022092;28;20250;-78
2021/12/05 10:58:54;;;;;;;5.87;1.70;;;;;;;5.01;78.33;99617.25;5024302;28;20233;-76
2021/12/05 11:01:34;;;;;;;2.67;1.47;;;;;;;5.00;78.61;99611.13;5021527;28;20753;-78
2021/12/05 11:04:03;;;;;;;5.33;1.73;;;;;;;5.00;77.98;99616.41;5020886;28;20207;-78
2021/12/05 11:06:38;;;;;;;4.77;1.50;;;;;;;4.99;78.35;99605.94;5020336;28;20221;-76
2021/12/05 11:09:14;;;;;;;7.50;2.23;;;;;;;5.00;77.95;99616.41;5027071;28;20206;-75
2021/12/05 11:11:43;;;;;;;3.07;1.67;;;;;;;5.00;77.94;99620.84;5024308;28;20207;-76
2021/12/05 11:14:15;;;;;;;4.80;2.13;;;;;;;4.99;77.77;99625.25;5023831;28;20626;-76
2021/12/05 11:16:46;;;;;;;6.60;1.80;;;;;;;4.99;78.24;99622.63;5021238;28;20234;-76
2021/12/05 11:19:25;;;;;;;7.73;3.60;;;;;;;4.99;77.79;99624.41;5021671;28;20490;-73
2021/12/05 11:21:59;;;;;;;4.77;1.73;;;;;;;5.01;77.80;99630.47;5035220;28;20301;-75
2021/12/05 11:24:29;;;;;;;16.50;2.20;;;;;;;5.02;78.01;99632.13;5033651;28;20691;-74
2021/12/05 11:27:16;;;;;;;4.63;1.77;;;;;;;5.05;77.41;99630.16;5025254;28;20802;-76
2021/12/05 11:29:47;;;;;;;10.07;4.17;;;;;;;5.05;77.57;99627.53;5028736;28;20210;-76
2021/12/05 11:32:16;;;;;;;10.03;4.60;;;;;;;5.08;77.71;99637.06;5024449;28;20198;-77
2021/12/05 11:34:43;;;;;;;6.03;1.53;;;;;;;5.11;77.81;99636.91;5027106;28;20234;-76
2021/12/05 11:37:11;;;;;;;7.00;2.47;;;;;;;5.12;77.52;99631.53;5021600;28;20210;-76
2021/12/05 11:39:38;;;;;;;6.40;1.90;;;;;;;5.15;77.64;99633.16;5027627;28;20217;-74
2021/12/05 11:42:13;;;;;;;4.57;2.10;;;;;;;5.16;77.64;99632.22;5025719;28;20202;-76
2021/12/05 11:44:42;;;;;;;4.30;2.27;;;;;;;5.17;77.34;99626.00;5024442;28;20194;-76
2021/12/05 11:47:14;;;;;;;6.50;1.60;;;;;;;5.18;77.12;99627.72;5028146;28;20213;-76
2021/12/05 11:49:41;;;;;;;4.50;1.80;;;;;;;5.19;77.24;99629.41;5025266;28;20214;-76
2021/12/05 11:52:08;;;;;;;5.27;1.30;;;;;;;5.23;77.11;99641.47;5026684;28;20210;-76
2021/12/05 11:54:38;;;;;;;5.83;2.47;;;;;;;5.24;77.21;99630.81;5032485;28;20225;-75
2021/12/05 11:57:08;;;;;;;5.87;1.97;;;;;;;5.29;76.94;99632.34;5029421;28;20225;-75
2021/12/05 11:59:37;;;;;;;4.03;1.60;;;;;;;5.31;76.42;99633.13;5025926;28;20220;-76
2021/12/05 12:02:07;;;;;;;5.63;1.80;;;;;;;5.34;76.54;99628.53;5027898;28;20206;-73
2021/12/05 12:04:48;;;;;;;3.33;1.30;;;;;;;5.38;76.27;99637.09;5029030;28;20198;-75
2021/12/05 12:07:27;;;;;;;6.27;1.80;;;;;;;5.41;76.25;99631.63;5028053;28;21098;-76
2021/12/05 12:09:59;;;;;;;4.33;2.20;;;;;;;5.44;76.14;99637.59;5021524;28;20198;-75
2021/12/05 12:12:26;;;;;;;4.77;1.60;;;;;;;5.47;75.99;99645.34;5024838;28;20672;-75
2021/12/05 12:14:53;;;;;;;4.13;1.93;;;;;;;5.50;75.79;99642.53;5031642;28;20217;-75
2021/12/05 12:17:20;;;;;;;5.67;2.00;;;;;;;5.53;75.70;99647.63;5021799;28;20579;-77
2021/12/05 12:19:49;;;;;;;4.80;1.77;;;;;;;5.56;75.75;99652.72;5024373;28;20208;-74
2021/12/05 12:22:20;;;;;;;4.33;1.47;;;;;;;5.59;75.32;99649.91;5030910;28;20207;-75
2021/12/05 12:24:50;;;;;;;2.87;1.47;;;;;;;5.60;75.23;99648.09;5035084;28;20220;-76
2021/12/05 12:27:18;;;;;;;5.57;2.50;;;;;;;5.63;74.83;99653.22;5024655;28;21768;-74
2021/12/05 12:29:46;;;;;;;7.37;3.03;;;;;;;5.66;74.92;99653.03;5028046;28;20204;-74
2021/12/05 12:32:16;;;;;;;6.60;1.87;;;;;;;5.72;74.44;99654.47;5031625;28;20202;-76
2021/12/05 12:34:44;;;;;;;3.60;1.10;;;;;;;5.75;74.52;99660.41;5028205;28;20273;-77
2021/12/05 12:37:12;;;;;;;4.87;1.80;;;;;;;5.78;74.23;99651.44;5028022;28;20673;-77
2021/12/05 12:39:43;;;;;;;4.53;1.70;;;;;;;5.80;73.61;99660.13;5024872;28;20210;-76
2021/12/05 12:42:18;;;;;;;5.27;2.10;;;;;;;5.82;73.57;99659.09;5022273;28;20207;-77
2021/12/05 12:45:13;;;;;;;4.00;1.87;;;;;;;5.84;73.34;99661.66;5017137;28;20632;-72
2021/12/05 12:47:41;;;;;;;6.27;1.70;;;;;;;5.85;73.23;99658.06;5018301;28;20611;-76
2021/12/05 12:50:34;;;;;;;5.87;2.30;;;;;;;5.85;73.27;99666.84;5020917;28;20584;-76
2021/12/05 12:53:09;;;;;;;5.90;3.00;;;;;;;5.86;72.73;99659.78;5017315;28;20293;-76
2021/12/05 12:55:38;;;;;;;5.40;2.50;;;;;;;5.87;73.11;99666.78;5018096;28;20225;-79
2021/12/05 12:58:07;;;;;;;4.13;2.43;;;;;;;5.87;72.53;99667.63;5017051;28;20202;-76
2021/12/05 13:00:40;;;;;;;6.80;4.53;;;;;;;5.87;72.37;99664.97;5022317;28;20204;-76
2021/12/05 13:03:25;;;;;;;14.87;7.50;;;;;;;5.87;72.44;99670.25;5014589;28;20573;-76
2021/12/05 13:07:20;;;;;;;24.30;13.60;;;;;;;5.87;72.34;99670.25;5012849;28;20823;-73
2021/12/05 13:11:48;;;;;;;7.80;4.10;;;;;;;5.85;71.93;99669.50;5024694;28;20353;-76
2021/12/05 13:14:15;;;;;;;6.03;2.63;;;;;;;5.84;72.03;99680.16;5022572;28;20222;-76
2021/12/05 13:16:44;;;;;;;6.67;2.10;;;;;;;5.82;72.25;99669.69;5024690;28;20235;-77
2021/12/05 13:19:15;;;;;;;5.30;1.63;;;;;;;5.82;72.22;99674.13;5024762;28;20206;-75
2021/12/05 13:21:43;;;;;;;5.87;1.60;;;;;;;5.80;72.10;99681.28;5031300;28;20210;-74
2021/12/05 13:24:29;;;;;;;5.57;2.30;;;;;;;5.78;72.27;99685.78;5030763;28;20237;-74
2021/12/05 13:27:01;;;;;;;4.20;1.20;;;;;;;5.76;71.94;99685.03;5031910;28;20226;-74
2021/12/05 13:29:29;;;;;;;5.70;1.83;;;;;;;5.74;71.89;99686.91;5024902;28;20206;-73
2021/12/05 13:32:05;;;;;;;7.73;2.40;;;;;;;5.74;72.34;99694.84;5024396;28;20206;-72
2021/12/05 13:34:45;;;;;;;3.27;1.73;;;;;;;5.75;72.02;99693.91;5023039;28;20222;-73
2021/12/05 13:37:24;;;;;;;4.80;1.60;;;;;;;5.73;72.15;99703.72;5025064;28;20215;-72
2021/12/05 13:39:53;;;;;;;5.17;2.07;;;;;;;5.73;72.15;99701.91;5028501;28;20202;-74
2021/12/05 13:42:22;;;;;;;6.67;2.30;;;;;;;5.72;72.03;99700.25;5019721;28;20207;-71
2021/12/05 13:45:09;;;;;;;4.73;2.23;;;;;;;5.73;71.86;99701.09;5028639;28;20226;-74
2021/12/05 13:47:40;;;;;;;6.70;1.90;;;;;;;5.74;72.40;99708.03;5030005;28;20203;-73
2021/12/05 13:50:26;;;;;;;5.87;1.60;;;;;;;5.74;72.06;99710.69;5023136;28;20656;-73
2021/12/05 13:52:55;;;;;;;6.53;1.93;;;;;;;5.71;71.85;99706.47;5030301;28;20286;-71
2021/12/05 13:55:38;;;;;;;9.50;3.27;;;;;;;5.71;71.74;99710.88;5025172;28;20245;-72
2021/12/05 13:58:25;;;;;;;8.27;3.83;;;;;;;5.69;71.88;99710.97;5032604;28;20241;-71
2021/12/05 14:00:57;;;;;;;10.60;7.80;;;;;;;5.69;71.88;99715.41;5026853;28;20206;-72
2021/12/05 14:03:50;;;;;;;4.20;3.17;;;;;;;5.68;71.71;99714.56;5025083;28;20203;-72
2021/12/05 14:06:28;;;;;;;4.93;2.80;;;;;;;5.67;71.98;99712.00;5024257;28;20226;-73
2021/12/05 14:08:59;;;;;;;10.40;2.40;;;;;;;5.66;71.67;99723.50;5032610;28;20202;-73
2021/12/05 14:11:28;;;;;;;8.57;2.37;;;;;;;5.63;71.61;99729.81;5026380;28;20217;-73
2021/12/05 14:13:54;;;;;;;6.13;1.97;;;;;;;5.63;71.56;99731.59;5021870;28;20230;-72
2021/12/05 14:16:29;;;;;;;3.43;1.77;;;;;;;5.59;71.36;99737.06;5023884;28;20230;-71
2021/12/05 14:18:57;;;;;;;4.57;1.60;;;;;;;5.54;70.91;99731.22;5027650;28;20427;-72
2021/12/05 14:21:26;;;;;;;6.80;2.40;;;;;;;5.52;71.14;99738.38;5026424;28;20213;-73
2021/12/05 14:23:54;;;;;;;7.90;2.10;;;;;;;5.50;71.26;99745.53;5021059;28;20758;-73
2021/12/05 14:26:25;;;;;;;7.73;2.77;;;;;;;5.49;71.33;99742.97;5029663;28;20727;-73
2021/12/05 14:28:56;;;;;;;5.07;2.30;;;;;;;5.46;71.45;99745.78;5036411;28;20208;-74
2021/12/05 14:31:25;;;;;;;5.80;2.37;;;;;;;5.43;71.55;99754.72;5037836;28;20690;-73
2021/12/05 14:33:54;;;;;;;5.73;3.33;;;;;;;5.40;71.58;99759.31;5026589;28;20202;-73
2021/12/05 14:36:25;;;;;;;6.23;2.87;;;;;;;5.37;71.40;99767.44;5038578;28;20445;-73
2021/12/05 14:39:11;;;;;;;6.57;2.50;;;;;;;5.32;71.76;99764.19;5036303;28;20206;-72
2021/12/05 14:41:39;;;;;;;4.87;2.30;;;;;;;5.26;71.80;99769.78;5024276;28;20203;-72
2021/12/05 14:44:06;;;;;;;5.17;2.57;;;;;;;5.20;71.83;99782.38;5030250;28;20213;-72
2021/12/05 14:46:33;;;;;;;5.57;2.20;;;;;;;5.16;72.07;99786.16;5052895;22;20240;-83
2021/12/05 14:49:02;;;;;;;7.87;2.80;;;;;;;5.12;72.17;99791.69;5055838;28;20205;-83
2021/12/05 14:51:35;;;;;;;6.60;3.67;;;;;;;5.07;72.36;99796.34;5053451;28;20221;-84
2021/12/05 14:54:04;;;;;;;5.83;3.60;;;;;;;5.01;72.26;99801.97;5060115;28;20207;-82
2021/12/05 14:56:33;;;;;;;7.53;4.53;;;;;;;4.94;72.65;99796.16;5054608;28;20236;-83
2021/12/05 14:59:09;;;;;;;9.93;5.60;;;;;;;4.87;72.88;99800.91;5051893;28;20289;-84
2021/12/05 15:01:37;;;;;;;9.67;6.00;;;;;;;4.82;73.03;99813.53;5052093;28;20221;-84
2021/12/05 15:04:06;;;;;;;13.10;7.53;;;;;;;4.77;72.83;99810.25;5050989;28;20360;-83
2021/12/05 15:06:39;;;;;;;6.83;3.70;;;;;;;4.70;73.26;99819.41;5056334;28;20268;-84
2021/12/05 15:09:08;;;;;;;4.27;3.30;;;;;;;4.60;72.88;99818.22;5056384;28;20212;-82
2021/12/05 15:11:35;;;;;;;5.60;2.40;;;;;;;4.52;72.81;99817.75;5055133;28;20627;-82
2021/12/05 15:14:08;;;;;;;7.23;2.57;;;;;;;4.44;72.92;99830.47;5052985;28;20205;-81
2021/12/05 15:16:35;;;;;;;5.47;3.50;;;;;;;4.38;73.20;99833.41;5055166;28;20213;-83
2021/12/05 15:19:01;;;;;;;7.37;4.50;;;;;;;4.33;73.57;99843.34;5055889;28;20212;-81
2021/12/05 15:21:30;;;;;;;12.97;6.90;;;;;;;4.27;73.84;99843.66;5060718;28;20235;-82
2021/12/05 15:23:58;;;;;;;9.90;7.63;;;;;;;4.21;73.98;99850.09;5063111;28;20228;-83
2021/12/05 15:26:33;;;;;;;13.07;9.10;;;;;;;4.17;74.42;99851.16;5063998;28;20208;-82
2021/12/05 15:29:03;;;;;;;15.20;11.70;;;;;;;4.12;74.66;99853.19;5060158;28;20619;-84
2021/12/05 15:31:35;;;;;;;21.77;14.80;;;;;;;4.08;75.04;99854.28;5045021;28;20221;-84
2021/12/05 15:34:03;;;;;;;12.77;9.63;;;;;;;4.02;74.82;99873.00;5054903;28;20213;-82
2021/12/05 15:36:34;;;;;;;13.67;9.97;;;;;;;3.96;74.49;99863.59;5062052;28;20210;-84
2021/12/05 15:39:12;;;;;;;16.27;10.23;;;;;;;3.91;75.09;99870.91;5054076;28;20214;-83
2021/12/05 15:41:39;;;;;;;10.27;7.10;;;;;;;3.84;74.53;99874.75;5057321;28;20227;-82
2021/12/05 15:44:06;;;;;;;11.13;7.40;;;;;;;3.77;75.36;99873.31;5050780;28;20210;-84
2021/12/05 15:46:33;;;;;;;7.93;5.10;;;;;;;3.69;74.71;99884.25;5050162;28;20213;-83
2021/12/05 15:49:00;;;;;;;7.17;3.80;;;;;;;3.57;74.51;99886.59;5056361;28;20205;-84
2021/12/05 15:51:26;;;;;;;7.80;5.57;;;;;;;3.48;75.37;99893.13;5055065;28;20236;-83